sensor_id;sensor_type;location;lat;lon;timestamp;temperature;humidity
7720;DHT22;3902;49.474;8.616;2023-06-10T00:01:24;22.90;90.20
7720;DHT22;3902;49.474;8.616;2023-06-10T00:03:50;22.90;90.00
7720;DHT22;3902;49.474;8.616;2023-06-10T00:06:17;22.90;90.10
7720;DHT22;3902;49.474;8.616;2023-06-10T00:08:42;22.90;90.30
7720;DHT22;3902;49.474;8.616;2023-06-10T00:11:08;22.90;90.40
7720;DHT22;3902;49.474;8.616;2023-06-10T00:13:33;22.90;90.50
7720;DHT22;3902;49.474;8.616;2023-06-10T00:15:59;22.90;90.50
7720;DHT22;3902;49.474;8.616;2023-06-10T00:18:24;22.90;90.60
7720;DHT22;3902;49.474;8.616;2023-06-10T00:20:52;22.80;90.60
7720;DHT22;3902;49.474;8.616;2023-06-10T00:23:21;22.80;90.50
7720;DHT22;3902;49.474;8.616;2023-06-10T00:25:46;22.70;90.50
7720;DHT22;3902;49.474;8.616;2023-06-10T00:28:12;22.70;90.20
7720;DHT22;3902;49.474;8.616;2023-06-10T00:30:38;22.70;90.20
7720;DHT22;3902;49.474;8.616;2023-06-10T00:33:04;22.70;90.20
7720;DHT22;3902;49.474;8.616;2023-06-10T00:35:30;22.70;90.40
7720;DHT22;3902;49.474;8.616;2023-06-10T00:37:55;22.70;90.50
7720;DHT22;3902;49.474;8.616;2023-06-10T00:40:21;22.70;90.60
7720;DHT22;3902;49.474;8.616;2023-06-10T00:42:46;22.70;90.60
7720;DHT22;3902;49.474;8.616;2023-06-10T00:45:12;22.60;90.70
7720;DHT22;3902;49.474;8.616;2023-06-10T00:47:38;22.60;90.70
7720;DHT22;3902;49.474;8.616;2023-06-10T00:50:05;22.60;90.80
7720;DHT22;3902;49.474;8.616;2023-06-10T00:52:31;22.50;90.80
7720;DHT22;3902;49.474;8.616;2023-06-10T00:54:58;22.50;91.00
7720;DHT22;3902;49.474;8.616;2023-06-10T00:57:25;22.50;91.00
7720;DHT22;3902;49.474;8.616;2023-06-10T00:59:50;22.50;91.20
7720;DHT22;3902;49.474;8.616;2023-06-10T01:02:16;22.50;91.20
7720;DHT22;3902;49.474;8.616;2023-06-10T01:04:42;22.40;91.20
7720;DHT22;3902;49.474;8.616;2023-06-10T01:07:28;22.40;91.30
7720;DHT22;3902;49.474;8.616;2023-06-10T01:15:04;22.20;91.50
7720;DHT22;3902;49.474;8.616;2023-06-10T01:17:30;22.20;91.70
7720;DHT22;3902;49.474;8.616;2023-06-10T01:19:57;22.20;91.80
7720;DHT22;3902;49.474;8.616;2023-06-10T01:22:24;22.10;91.80
7720;DHT22;3902;49.474;8.616;2023-06-10T01:24:51;22.10;91.90
7720;DHT22;3902;49.474;8.616;2023-06-10T01:27:19;21.90;91.80
7720;DHT22;3902;49.474;8.616;2023-06-10T01:29:53;22.00;92.10
7720;DHT22;3902;49.474;8.616;2023-06-10T01:32:32;22.00;92.10
7720;DHT22;3902;49.474;8.616;2023-06-10T01:34:59;21.90;92.20
7720;DHT22;3902;49.474;8.616;2023-06-10T01:37:26;21.90;92.30
7720;DHT22;3902;49.474;8.616;2023-06-10T01:40:00;21.90;92.40
7720;DHT22;3902;49.474;8.616;2023-06-10T01:42:29;21.80;92.40
7720;DHT22;3902;49.474;8.616;2023-06-10T01:44:55;21.80;92.50
7720;DHT22;3902;49.474;8.616;2023-06-10T01:47:20;21.80;92.40
7720;DHT22;3902;49.474;8.616;2023-06-10T01:49:46;21.80;92.60
7720;DHT22;3902;49.474;8.616;2023-06-10T01:52:12;21.80;92.60
7720;DHT22;3902;49.474;8.616;2023-06-10T01:54:37;21.70;92.70
7720;DHT22;3902;49.474;8.616;2023-06-10T01:57:03;21.70;92.60
7720;DHT22;3902;49.474;8.616;2023-06-10T01:59:29;21.70;92.90
7720;DHT22;3902;49.474;8.616;2023-06-10T02:01:54;21.70;92.70
7720;DHT22;3902;49.474;8.616;2023-06-10T02:04:20;21.60;92.70
7720;DHT22;3902;49.474;8.616;2023-06-10T02:06:46;21.60;92.90
7720;DHT22;3902;49.474;8.616;2023-06-10T02:09:11;21.60;93.00
7720;DHT22;3902;49.474;8.616;2023-06-10T02:11:37;21.50;93.20
7720;DHT22;3902;49.474;8.616;2023-06-10T02:14:02;21.50;93.30
7720;DHT22;3902;49.474;8.616;2023-06-10T02:16:28;21.50;93.40
7720;DHT22;3902;49.474;8.616;2023-06-10T02:18:53;21.50;93.50
7720;DHT22;3902;49.474;8.616;2023-06-10T02:21:22;21.50;93.50
7720;DHT22;3902;49.474;8.616;2023-06-10T02:23:47;21.50;93.50
7720;DHT22;3902;49.474;8.616;2023-06-10T02:26:13;21.50;93.50
7720;DHT22;3902;49.474;8.616;2023-06-10T02:28:42;21.40;93.70
7720;DHT22;3902;49.474;8.616;2023-06-10T02:31:08;21.40;93.80
7720;DHT22;3902;49.474;8.616;2023-06-10T02:33:33;21.40;93.90
7720;DHT22;3902;49.474;8.616;2023-06-10T02:35:59;21.30;93.90
7720;DHT22;3902;49.474;8.616;2023-06-10T02:38:25;21.30;93.90
7720;DHT22;3902;49.474;8.616;2023-06-10T02:40:50;21.30;93.90
7720;DHT22;3902;49.474;8.616;2023-06-10T02:43:16;21.20;94.00
7720;DHT22;3902;49.474;8.616;2023-06-10T02:45:41;21.20;94.10
7720;DHT22;3902;49.474;8.616;2023-06-10T02:48:07;21.10;94.30
7720;DHT22;3902;49.474;8.616;2023-06-10T02:50:32;21.10;94.40
7720;DHT22;3902;49.474;8.616;2023-06-10T02:52:58;21.10;94.50
7720;DHT22;3902;49.474;8.616;2023-06-10T02:55:23;21.00;94.50
7720;DHT22;3902;49.474;8.616;2023-06-10T02:57:51;21.00;94.70
7720;DHT22;3902;49.474;8.616;2023-06-10T03:00:18;21.00;94.70
7720;DHT22;3902;49.474;8.616;2023-06-10T03:02:46;20.90;94.90
7720;DHT22;3902;49.474;8.616;2023-06-10T03:05:12;20.90;95.00
7720;DHT22;3902;49.474;8.616;2023-06-10T03:07:38;20.90;95.10
7720;DHT22;3902;49.474;8.616;2023-06-10T03:10:05;20.80;95.20
7720;DHT22;3902;49.474;8.616;2023-06-10T03:12:31;20.70;95.30
7720;DHT22;3902;49.474;8.616;2023-06-10T03:14:57;20.70;95.40
7720;DHT22;3902;49.474;8.616;2023-06-10T03:17:23;20.80;95.30
7720;DHT22;3902;49.474;8.616;2023-06-10T03:19:48;20.70;95.40
7720;DHT22;3902;49.474;8.616;2023-06-10T03:22:16;20.70;95.60
7720;DHT22;3902;49.474;8.616;2023-06-10T03:24:42;20.60;95.80
7720;DHT22;3902;49.474;8.616;2023-06-10T03:27:09;20.60;95.70
7720;DHT22;3902;49.474;8.616;2023-06-10T03:29:36;20.60;95.70
7720;DHT22;3902;49.474;8.616;2023-06-10T03:32:02;20.60;95.80
7720;DHT22;3902;49.474;8.616;2023-06-10T03:34:28;20.60;95.80
7720;DHT22;3902;49.474;8.616;2023-06-10T03:36:53;20.50;95.90
7720;DHT22;3902;49.474;8.616;2023-06-10T03:39:19;20.50;96.10
7720;DHT22;3902;49.474;8.616;2023-06-10T03:41:44;20.50;96.10
7720;DHT22;3902;49.474;8.616;2023-06-10T03:44:10;20.50;96.30
7720;DHT22;3902;49.474;8.616;2023-06-10T03:46:35;20.50;96.30
7720;DHT22;3902;49.474;8.616;2023-06-10T03:49:01;20.50;96.40
7720;DHT22;3902;49.474;8.616;2023-06-10T03:51:28;20.40;96.50
7720;DHT22;3902;49.474;8.616;2023-06-10T03:53:54;20.40;96.60
7720;DHT22;3902;49.474;8.616;2023-06-10T03:56:20;20.40;96.80
7720;DHT22;3902;49.474;8.616;2023-06-10T03:58:45;20.40;96.80
7720;DHT22;3902;49.474;8.616;2023-06-10T04:01:11;20.30;97.00
7720;DHT22;3902;49.474;8.616;2023-06-10T04:03:38;20.30;97.10
7720;DHT22;3902;49.474;8.616;2023-06-10T04:06:04;20.30;97.20
7720;DHT22;3902;49.474;8.616;2023-06-10T04:08:30;20.30;97.40
7720;DHT22;3902;49.474;8.616;2023-06-10T04:10:56;20.30;97.40
7720;DHT22;3902;49.474;8.616;2023-06-10T04:13:23;20.30;97.50
7720;DHT22;3902;49.474;8.616;2023-06-10T04:15:48;20.30;97.60
7720;DHT22;3902;49.474;8.616;2023-06-10T04:18:14;20.30;97.60
7720;DHT22;3902;49.474;8.616;2023-06-10T04:20:40;20.30;97.70
7720;DHT22;3902;49.474;8.616;2023-06-10T04:23:06;20.30;97.80
7720;DHT22;3902;49.474;8.616;2023-06-10T04:25:31;20.30;98.00
7720;DHT22;3902;49.474;8.616;2023-06-10T04:27:57;20.30;98.10
7720;DHT22;3902;49.474;8.616;2023-06-10T04:30:22;20.30;98.10
7720;DHT22;3902;49.474;8.616;2023-06-10T04:32:48;20.30;98.00
7720;DHT22;3902;49.474;8.616;2023-06-10T04:35:16;20.30;97.90
7720;DHT22;3902;49.474;8.616;2023-06-10T04:37:41;20.30;98.00
7720;DHT22;3902;49.474;8.616;2023-06-10T04:40:08;20.30;97.80
7720;DHT22;3902;49.474;8.616;2023-06-10T04:42:34;20.30;98.00
7720;DHT22;3902;49.474;8.616;2023-06-10T04:45:00;20.30;98.00
7720;DHT22;3902;49.474;8.616;2023-06-10T04:47:26;20.30;98.00
7720;DHT22;3902;49.474;8.616;2023-06-10T04:49:52;20.30;98.00
7720;DHT22;3902;49.474;8.616;2023-06-10T04:52:17;20.30;98.20
7720;DHT22;3902;49.474;8.616;2023-06-10T04:54:43;20.40;98.20
7720;DHT22;3902;49.474;8.616;2023-06-10T04:57:09;20.30;98.30
7720;DHT22;3902;49.474;8.616;2023-06-10T04:59:34;20.40;98.20
7720;DHT22;3902;49.474;8.616;2023-06-10T05:02:06;20.40;98.40
7720;DHT22;3902;49.474;8.616;2023-06-10T05:04:32;20.40;98.50
7720;DHT22;3902;49.474;8.616;2023-06-10T05:06:57;20.40;98.70
7720;DHT22;3902;49.474;8.616;2023-06-10T05:09:23;20.40;98.40
7720;DHT22;3902;49.474;8.616;2023-06-10T05:11:49;20.50;98.60
7720;DHT22;3902;49.474;8.616;2023-06-10T05:14:14;20.50;98.80
7720;DHT22;3902;49.474;8.616;2023-06-10T05:16:42;20.50;98.70
7720;DHT22;3902;49.474;8.616;2023-06-10T05:19:08;20.50;98.90
7720;DHT22;3902;49.474;8.616;2023-06-10T05:21:34;20.60;98.80
7720;DHT22;3902;49.474;8.616;2023-06-10T05:23:59;20.60;99.20
7720;DHT22;3902;49.474;8.616;2023-06-10T05:26:25;20.50;98.70
7720;DHT22;3902;49.474;8.616;2023-06-10T05:28:50;20.50;98.70
7720;DHT22;3902;49.474;8.616;2023-06-10T05:31:16;20.60;98.80
7720;DHT22;3902;49.474;8.616;2023-06-10T05:33:41;20.60;98.90
7720;DHT22;3902;49.474;8.616;2023-06-10T05:36:07;20.70;98.80
7720;DHT22;3902;49.474;8.616;2023-06-10T05:38:32;20.70;98.60
7720;DHT22;3902;49.474;8.616;2023-06-10T05:40:58;20.70;98.80
7720;DHT22;3902;49.474;8.616;2023-06-10T05:43:24;20.70;98.50
7720;DHT22;3902;49.474;8.616;2023-06-10T05:45:50;20.80;98.60
7720;DHT22;3902;49.474;8.616;2023-06-10T05:48:15;20.80;98.20
7720;DHT22;3902;49.474;8.616;2023-06-10T05:50:41;20.80;98.50
7720;DHT22;3902;49.474;8.616;2023-06-10T05:53:08;20.80;98.40
7720;DHT22;3902;49.474;8.616;2023-06-10T05:55:43;20.80;98.60
7720;DHT22;3902;49.474;8.616;2023-06-10T05:58:09;20.90;98.60
7720;DHT22;3902;49.474;8.616;2023-06-10T06:00:35;20.90;99.00
7720;DHT22;3902;49.474;8.616;2023-06-10T06:03:00;20.90;98.80
7720;DHT22;3902;49.474;8.616;2023-06-10T06:05:26;20.90;98.80
7720;DHT22;3902;49.474;8.616;2023-06-10T06:07:51;21.00;99.00
7720;DHT22;3902;49.474;8.616;2023-06-10T06:10:17;21.00;98.80
7720;DHT22;3902;49.474;8.616;2023-06-10T06:12:43;21.00;99.20
7720;DHT22;3902;49.474;8.616;2023-06-10T06:15:10;21.00;99.20
7720;DHT22;3902;49.474;8.616;2023-06-10T06:17:36;21.10;99.20
7720;DHT22;3902;49.474;8.616;2023-06-10T06:20:03;21.10;99.60
7720;DHT22;3902;49.474;8.616;2023-06-10T06:22:29;21.10;99.90
7720;DHT22;3902;49.474;8.616;2023-06-10T06:24:54;21.20;99.90
7720;DHT22;3902;49.474;8.616;2023-06-10T06:27:20;21.20;99.80
7720;DHT22;3902;49.474;8.616;2023-06-10T06:29:46;21.20;99.70
7720;DHT22;3902;49.474;8.616;2023-06-10T06:32:12;21.30;99.60
7720;DHT22;3902;49.474;8.616;2023-06-10T06:34:37;21.30;99.80
7720;DHT22;3902;49.474;8.616;2023-06-10T06:37:03;21.40;99.80
7720;DHT22;3902;49.474;8.616;2023-06-10T06:39:29;21.40;99.60
7720;DHT22;3902;49.474;8.616;2023-06-10T06:41:54;21.50;99.30
7720;DHT22;3902;49.474;8.616;2023-06-10T06:44:20;21.50;99.30
7720;DHT22;3902;49.474;8.616;2023-06-10T06:46:45;21.50;99.00
7720;DHT22;3902;49.474;8.616;2023-06-10T06:49:11;21.60;99.00
7720;DHT22;3902;49.474;8.616;2023-06-10T06:51:36;21.60;98.90
7720;DHT22;3902;49.474;8.616;2023-06-10T06:54:02;21.60;99.30
7720;DHT22;3902;49.474;8.616;2023-06-10T06:56:28;21.70;98.90
7720;DHT22;3902;49.474;8.616;2023-06-10T06:58:53;21.80;99.20
7720;DHT22;3902;49.474;8.616;2023-06-10T07:01:19;21.80;99.00
7720;DHT22;3902;49.474;8.616;2023-06-10T07:03:45;21.80;98.80
7720;DHT22;3902;49.474;8.616;2023-06-10T07:06:12;21.90;98.90
7720;DHT22;3902;49.474;8.616;2023-06-10T07:08:37;22.00;98.40
7720;DHT22;3902;49.474;8.616;2023-06-10T07:11:03;22.00;98.30
7720;DHT22;3902;49.474;8.616;2023-06-10T07:13:28;22.10;98.50
7720;DHT22;3902;49.474;8.616;2023-06-10T07:15:54;22.10;98.60
7720;DHT22;3902;49.474;8.616;2023-06-10T07:18:19;22.10;98.80
7720;DHT22;3902;49.474;8.616;2023-06-10T07:20:45;22.20;98.90
7720;DHT22;3902;49.474;8.616;2023-06-10T07:23:10;22.20;98.50
7720;DHT22;3902;49.474;8.616;2023-06-10T07:25:36;22.30;98.50
7720;DHT22;3902;49.474;8.616;2023-06-10T07:28:01;22.30;98.20
7720;DHT22;3902;49.474;8.616;2023-06-10T07:30:28;22.40;98.30
7720;DHT22;3902;49.474;8.616;2023-06-10T07:32:54;22.40;98.50
7720;DHT22;3902;49.474;8.616;2023-06-10T07:35:21;22.50;98.40
7720;DHT22;3902;49.474;8.616;2023-06-10T07:37:46;22.50;98.20
7720;DHT22;3902;49.474;8.616;2023-06-10T07:40:12;22.60;98.30
7720;DHT22;3902;49.474;8.616;2023-06-10T07:42:37;22.80;99.10
7720;DHT22;3902;49.474;8.616;2023-06-10T07:45:04;22.90;98.20
7720;DHT22;3902;49.474;8.616;2023-06-10T07:47:30;23.00;97.80
7720;DHT22;3902;49.474;8.616;2023-06-10T07:49:55;23.10;97.60
7720;DHT22;3902;49.474;8.616;2023-06-10T07:52:21;23.10;97.40
7720;DHT22;3902;49.474;8.616;2023-06-10T07:54:47;23.20;97.40
7720;DHT22;3902;49.474;8.616;2023-06-10T07:57:12;23.20;97.60
7720;DHT22;3902;49.474;8.616;2023-06-10T07:59:38;23.30;97.20
7720;DHT22;3902;49.474;8.616;2023-06-10T08:02:04;23.30;97.30
7720;DHT22;3902;49.474;8.616;2023-06-10T08:04:30;23.30;97.10
7720;DHT22;3902;49.474;8.616;2023-06-10T08:06:56;23.30;97.40
7720;DHT22;3902;49.474;8.616;2023-06-10T08:09:22;23.40;97.70
7720;DHT22;3902;49.474;8.616;2023-06-10T08:11:48;23.40;97.80
7720;DHT22;3902;49.474;8.616;2023-06-10T08:14:14;23.50;97.80
7720;DHT22;3902;49.474;8.616;2023-06-10T08:16:40;23.50;96.60
7720;DHT22;3902;49.474;8.616;2023-06-10T08:19:05;23.60;97.00
7720;DHT22;3902;49.474;8.616;2023-06-10T08:21:31;23.70;97.10
7720;DHT22;3902;49.474;8.616;2023-06-10T08:23:56;23.70;96.80
7720;DHT22;3902;49.474;8.616;2023-06-10T08:26:22;23.80;97.00
7720;DHT22;3902;49.474;8.616;2023-06-10T08:28:47;23.80;97.10
7720;DHT22;3902;49.474;8.616;2023-06-10T08:31:13;23.90;97.00
7720;DHT22;3902;49.474;8.616;2023-06-10T08:33:39;24.00;97.50
7720;DHT22;3902;49.474;8.616;2023-06-10T08:36:04;24.00;96.90
7720;DHT22;3902;49.474;8.616;2023-06-10T08:38:30;24.10;96.90
7720;DHT22;3902;49.474;8.616;2023-06-10T08:40:58;24.20;96.80
7720;DHT22;3902;49.474;8.616;2023-06-10T08:43:38;24.30;96.90
7720;DHT22;3902;49.474;8.616;2023-06-10T08:46:08;24.40;96.20
7720;DHT22;3902;49.474;8.616;2023-06-10T08:48:35;24.40;96.00
7720;DHT22;3902;49.474;8.616;2023-06-10T08:51:04;24.40;95.60
7720;DHT22;3902;49.474;8.616;2023-06-10T08:53:32;24.50;95.60
7720;DHT22;3902;49.474;8.616;2023-06-10T08:56:01;24.60;95.80
7720;DHT22;3902;49.474;8.616;2023-06-10T08:58:28;24.70;95.40
7720;DHT22;3902;49.474;8.616;2023-06-10T09:00:54;24.70;95.00
7720;DHT22;3902;49.474;8.616;2023-06-10T09:03:21;24.90;95.30
7720;DHT22;3902;49.474;8.616;2023-06-10T09:05:47;24.80;95.20
7720;DHT22;3902;49.474;8.616;2023-06-10T09:08:14;24.80;95.50
7720;DHT22;3902;49.474;8.616;2023-06-10T09:10:41;24.80;94.80
7720;DHT22;3902;49.474;8.616;2023-06-10T09:13:06;24.90;94.90
7720;DHT22;3902;49.474;8.616;2023-06-10T09:15:32;24.90;95.20
7720;DHT22;3902;49.474;8.616;2023-06-10T09:17:58;24.90;95.50
7720;DHT22;3902;49.474;8.616;2023-06-10T09:20:25;25.00;95.40
7720;DHT22;3902;49.474;8.616;2023-06-10T09:22:50;25.10;95.00
7720;DHT22;3902;49.474;8.616;2023-06-10T09:25:16;25.10;94.90
7720;DHT22;3902;49.474;8.616;2023-06-10T09:27:50;25.30;94.60
7720;DHT22;3902;49.474;8.616;2023-06-10T09:32:53;25.50;94.90
7720;DHT22;3902;49.474;8.616;2023-06-10T09:35:18;25.60;94.60
7720;DHT22;3902;49.474;8.616;2023-06-10T09:37:44;25.70;93.20
7720;DHT22;3902;49.474;8.616;2023-06-10T09:40:11;25.80;93.30
7720;DHT22;3902;49.474;8.616;2023-06-10T09:42:38;25.90;93.90
7720;DHT22;3902;49.474;8.616;2023-06-10T09:45:06;26.00;93.20
7720;DHT22;3902;49.474;8.616;2023-06-10T09:47:31;26.10;92.90
7720;DHT22;3902;49.474;8.616;2023-06-10T09:49:57;26.30;92.40
7720;DHT22;3902;49.474;8.616;2023-06-10T09:52:24;26.50;92.00
7720;DHT22;3902;49.474;8.616;2023-06-10T09:54:55;26.60;91.20
7720;DHT22;3902;49.474;8.616;2023-06-10T09:57:24;26.80;91.50
7720;DHT22;3902;49.474;8.616;2023-06-10T09:59:53;26.90;91.50
7720;DHT22;3902;49.474;8.616;2023-06-10T10:02:19;26.90;91.80
7720;DHT22;3902;49.474;8.616;2023-06-10T10:04:45;27.10;91.30
7720;DHT22;3902;49.474;8.616;2023-06-10T10:07:11;27.20;90.90
7720;DHT22;3902;49.474;8.616;2023-06-10T10:09:37;27.30;91.00
7720;DHT22;3902;49.474;8.616;2023-06-10T10:12:12;27.40;90.80
7720;DHT22;3902;49.474;8.616;2023-06-10T10:14:39;27.60;90.20
7720;DHT22;3902;49.474;8.616;2023-06-10T10:17:08;27.60;90.20
7720;DHT22;3902;49.474;8.616;2023-06-10T10:19:40;27.70;90.00
7720;DHT22;3902;49.474;8.616;2023-06-10T10:22:16;27.70;89.20
7720;DHT22;3902;49.474;8.616;2023-06-10T10:24:52;27.90;89.60
7720;DHT22;3902;49.474;8.616;2023-06-10T10:27:27;27.90;90.70
7720;DHT22;3902;49.474;8.616;2023-06-10T10:29:54;27.90;90.40
7720;DHT22;3902;49.474;8.616;2023-06-10T10:32:26;28.00;89.50
7720;DHT22;3902;49.474;8.616;2023-06-10T10:37:31;28.30;87.90
7720;DHT22;3902;49.474;8.616;2023-06-10T10:39:57;28.40;89.00
7720;DHT22;3902;49.474;8.616;2023-06-10T10:42:23;28.30;88.70
7720;DHT22;3902;49.474;8.616;2023-06-10T10:44:50;28.40;87.50
7720;DHT22;3902;49.474;8.616;2023-06-10T10:47:21;28.50;86.50
7720;DHT22;3902;49.474;8.616;2023-06-10T10:49:50;28.60;86.70
7720;DHT22;3902;49.474;8.616;2023-06-10T10:52:16;28.60;86.50
7720;DHT22;3902;49.474;8.616;2023-06-10T10:54:46;28.70;85.80
7720;DHT22;3902;49.474;8.616;2023-06-10T10:57:20;28.90;86.60
7720;DHT22;3902;49.474;8.616;2023-06-10T11:04:58;29.30;84.60
7720;DHT22;3902;49.474;8.616;2023-06-10T11:07:25;29.40;83.40
7720;DHT22;3902;49.474;8.616;2023-06-10T11:12:53;29.40;81.90
7720;DHT22;3902;49.474;8.616;2023-06-10T11:15:23;29.50;82.10
7720;DHT22;3902;49.474;8.616;2023-06-10T11:31:26;29.80;81.40
7720;DHT22;3902;49.474;8.616;2023-06-10T11:33:57;29.90;82.60
7720;DHT22;3902;49.474;8.616;2023-06-10T11:36:23;30.00;82.20
7720;DHT22;3902;49.474;8.616;2023-06-10T11:38:51;30.10;82.70
7720;DHT22;3902;49.474;8.616;2023-06-10T11:41:18;30.30;81.30
7720;DHT22;3902;49.474;8.616;2023-06-10T11:43:44;30.40;83.60
7720;DHT22;3902;49.474;8.616;2023-06-10T11:46:14;30.50;82.10
7720;DHT22;3902;49.474;8.616;2023-06-10T11:48:51;30.70;81.00
7720;DHT22;3902;49.474;8.616;2023-06-10T11:51:17;30.60;80.20
7720;DHT22;3902;49.474;8.616;2023-06-10T11:53:47;30.60;81.10
7720;DHT22;3902;49.474;8.616;2023-06-10T11:56:19;30.70;81.70
7720;DHT22;3902;49.474;8.616;2023-06-10T11:58:45;30.70;81.90
7720;DHT22;3902;49.474;8.616;2023-06-10T12:01:10;30.80;82.00
7720;DHT22;3902;49.474;8.616;2023-06-10T12:03:37;30.70;81.00
7720;DHT22;3902;49.474;8.616;2023-06-10T12:06:06;30.60;80.80
7720;DHT22;3902;49.474;8.616;2023-06-10T12:08:33;30.50;79.60
7720;DHT22;3902;49.474;8.616;2023-06-10T12:10:59;30.50;81.10
7720;DHT22;3902;49.474;8.616;2023-06-10T12:13:28;30.40;82.10
7720;DHT22;3902;49.474;8.616;2023-06-10T12:15:54;30.30;82.00
7720;DHT22;3902;49.474;8.616;2023-06-10T12:18:21;30.20;80.60
7720;DHT22;3902;49.474;8.616;2023-06-10T12:20:48;30.20;79.80
7720;DHT22;3902;49.474;8.616;2023-06-10T12:23:15;30.20;81.00
7720;DHT22;3902;49.474;8.616;2023-06-10T12:25:55;30.10;82.00
7720;DHT22;3902;49.474;8.616;2023-06-10T12:28:25;30.10;81.30
7720;DHT22;3902;49.474;8.616;2023-06-10T12:30:52;30.20;83.20
7720;DHT22;3902;49.474;8.616;2023-06-10T12:33:31;30.20;82.00
7720;DHT22;3902;49.474;8.616;2023-06-10T12:35:56;30.20;81.20
7720;DHT22;3902;49.474;8.616;2023-06-10T12:38:23;30.10;81.30
7720;DHT22;3902;49.474;8.616;2023-06-10T12:40:50;30.00;82.10
7720;DHT22;3902;49.474;8.616;2023-06-10T12:43:20;30.10;82.80
7720;DHT22;3902;49.474;8.616;2023-06-10T12:45:46;30.20;82.70
7720;DHT22;3902;49.474;8.616;2023-06-10T12:48:23;30.40;83.70
7720;DHT22;3902;49.474;8.616;2023-06-10T12:50:53;30.70;83.80
7720;DHT22;3902;49.474;8.616;2023-06-10T12:53:20;30.90;82.30
7720;DHT22;3902;49.474;8.616;2023-06-10T12:55:46;30.90;80.80
7720;DHT22;3902;49.474;8.616;2023-06-10T12:58:13;30.90;79.40
7720;DHT22;3902;49.474;8.616;2023-06-10T13:00:39;30.90;80.70
7720;DHT22;3902;49.474;8.616;2023-06-10T13:03:05;30.80;79.50
7720;DHT22;3902;49.474;8.616;2023-06-10T13:05:31;30.70;80.30
7720;DHT22;3902;49.474;8.616;2023-06-10T13:07:58;30.60;79.10
7720;DHT22;3902;49.474;8.616;2023-06-10T13:10:24;30.70;79.10
7720;DHT22;3902;49.474;8.616;2023-06-10T13:12:50;30.80;81.30
7720;DHT22;3902;49.474;8.616;2023-06-10T13:15:16;31.00;80.30
7720;DHT22;3902;49.474;8.616;2023-06-10T13:17:45;31.20;80.40
7720;DHT22;3902;49.474;8.616;2023-06-10T13:20:14;31.20;78.50
7720;DHT22;3902;49.474;8.616;2023-06-10T13:22:40;31.20;77.60
7720;DHT22;3902;49.474;8.616;2023-06-10T13:25:06;31.20;79.20
7720;DHT22;3902;49.474;8.616;2023-06-10T13:27:35;31.20;79.60
7720;DHT22;3902;49.474;8.616;2023-06-10T13:30:03;31.10;78.40
7720;DHT22;3902;49.474;8.616;2023-06-10T13:32:29;31.00;77.90
7720;DHT22;3902;49.474;8.616;2023-06-10T13:34:55;31.10;78.80
7720;DHT22;3902;49.474;8.616;2023-06-10T13:37:20;31.20;79.60
7720;DHT22;3902;49.474;8.616;2023-06-10T13:39:46;31.30;79.80
7720;DHT22;3902;49.474;8.616;2023-06-10T13:42:14;31.40;78.60
7720;DHT22;3902;49.474;8.616;2023-06-10T13:44:39;31.40;77.50
7720;DHT22;3902;49.474;8.616;2023-06-10T13:47:05;31.40;76.50
7720;DHT22;3902;49.474;8.616;2023-06-10T13:49:31;31.30;77.10
7720;DHT22;3902;49.474;8.616;2023-06-10T13:51:57;31.20;77.20
7720;DHT22;3902;49.474;8.616;2023-06-10T13:54:23;31.00;76.30
7720;DHT22;3902;49.474;8.616;2023-06-10T13:56:48;30.90;76.50
7720;DHT22;3902;49.474;8.616;2023-06-10T13:59:14;30.90;76.70
7720;DHT22;3902;49.474;8.616;2023-06-10T14:01:39;31.00;77.50
7720;DHT22;3902;49.474;8.616;2023-06-10T14:04:06;31.10;77.60
7720;DHT22;3902;49.474;8.616;2023-06-10T14:06:32;31.30;78.50
7720;DHT22;3902;49.474;8.616;2023-06-10T14:08:59;31.40;78.40
7720;DHT22;3902;49.474;8.616;2023-06-10T14:11:24;31.60;77.50
7720;DHT22;3902;49.474;8.616;2023-06-10T14:13:50;31.80;76.90
7720;DHT22;3902;49.474;8.616;2023-06-10T14:16:15;32.00;77.70
7720;DHT22;3902;49.474;8.616;2023-06-10T14:18:41;32.20;76.50
7720;DHT22;3902;49.474;8.616;2023-06-10T14:21:06;32.20;75.60
7720;DHT22;3902;49.474;8.616;2023-06-10T14:23:32;32.20;72.80
7720;DHT22;3902;49.474;8.616;2023-06-10T14:25:58;32.00;72.10
7720;DHT22;3902;49.474;8.616;2023-06-10T14:28:24;31.80;69.80
7720;DHT22;3902;49.474;8.616;2023-06-10T14:30:51;31.70;71.60
7720;DHT22;3902;49.474;8.616;2023-06-10T14:33:17;31.50;71.80
7720;DHT22;3902;49.474;8.616;2023-06-10T14:35:43;31.30;72.60
7720;DHT22;3902;49.474;8.616;2023-06-10T14:38:08;31.30;72.40
7720;DHT22;3902;49.474;8.616;2023-06-10T14:40:34;31.30;74.00
7720;DHT22;3902;49.474;8.616;2023-06-10T14:43:01;31.40;74.40
7720;DHT22;3902;49.474;8.616;2023-06-10T14:45:29;31.50;74.30
7720;DHT22;3902;49.474;8.616;2023-06-10T14:47:54;31.70;74.80
7720;DHT22;3902;49.474;8.616;2023-06-10T14:50:20;31.80;75.10
7720;DHT22;3902;49.474;8.616;2023-06-10T14:52:46;31.90;73.40
7720;DHT22;3902;49.474;8.616;2023-06-10T14:55:11;32.00;72.30
7720;DHT22;3902;49.474;8.616;2023-06-10T14:57:37;32.00;72.40
7720;DHT22;3902;49.474;8.616;2023-06-10T15:00:02;32.10;72.80
7720;DHT22;3902;49.474;8.616;2023-06-10T15:02:28;32.20;73.00
7720;DHT22;3902;49.474;8.616;2023-06-10T15:04:54;32.30;72.70
7720;DHT22;3902;49.474;8.616;2023-06-10T15:07:20;32.40;72.60
7720;DHT22;3902;49.474;8.616;2023-06-10T15:09:45;32.40;72.20
7720;DHT22;3902;49.474;8.616;2023-06-10T15:12:11;32.40;72.30
7720;DHT22;3902;49.474;8.616;2023-06-10T15:14:36;32.40;72.20
7720;DHT22;3902;49.474;8.616;2023-06-10T15:17:02;32.40;71.60
7720;DHT22;3902;49.474;8.616;2023-06-10T15:19:28;32.40;73.20
7720;DHT22;3902;49.474;8.616;2023-06-10T15:21:53;32.40;71.70
7720;DHT22;3902;49.474;8.616;2023-06-10T15:24:19;32.40;72.00
7720;DHT22;3902;49.474;8.616;2023-06-10T15:26:45;32.40;72.00
7720;DHT22;3902;49.474;8.616;2023-06-10T15:29:10;32.40;72.90
7720;DHT22;3902;49.474;8.616;2023-06-10T15:31:36;32.40;73.00
7720;DHT22;3902;49.474;8.616;2023-06-10T15:34:02;32.40;71.70
7720;DHT22;3902;49.474;8.616;2023-06-10T15:36:29;32.40;73.30
7720;DHT22;3902;49.474;8.616;2023-06-10T15:39:00;32.30;72.30
7720;DHT22;3902;49.474;8.616;2023-06-10T15:41:25;32.30;72.40
7720;DHT22;3902;49.474;8.616;2023-06-10T15:43:52;32.30;72.70
7720;DHT22;3902;49.474;8.616;2023-06-10T15:46:17;32.30;72.70
7720;DHT22;3902;49.474;8.616;2023-06-10T15:48:43;32.30;73.10
7720;DHT22;3902;49.474;8.616;2023-06-10T15:51:08;32.20;72.20
7720;DHT22;3902;49.474;8.616;2023-06-10T15:53:34;32.20;72.50
7720;DHT22;3902;49.474;8.616;2023-06-10T15:56:01;32.10;72.10
7720;DHT22;3902;49.474;8.616;2023-06-10T15:58:26;32.10;72.40
7720;DHT22;3902;49.474;8.616;2023-06-10T16:00:52;32.10;72.50
7720;DHT22;3902;49.474;8.616;2023-06-10T16:03:17;32.10;72.60
7720;DHT22;3902;49.474;8.616;2023-06-10T16:05:43;32.10;72.10
7720;DHT22;3902;49.474;8.616;2023-06-10T16:08:09;32.10;72.30
7720;DHT22;3902;49.474;8.616;2023-06-10T16:10:34;32.20;72.40
7720;DHT22;3902;49.474;8.616;2023-06-10T16:13:00;32.10;72.20
7720;DHT22;3902;49.474;8.616;2023-06-10T16:15:25;32.10;73.10
7720;DHT22;3902;49.474;8.616;2023-06-10T16:17:51;32.10;71.70
7720;DHT22;3902;49.474;8.616;2023-06-10T16:20:16;32.00;71.90
7720;DHT22;3902;49.474;8.616;2023-06-10T16:22:42;32.00;73.90
7720;DHT22;3902;49.474;8.616;2023-06-10T16:25:08;32.00;72.50
7720;DHT22;3902;49.474;8.616;2023-06-10T16:27:33;31.90;72.80
7720;DHT22;3902;49.474;8.616;2023-06-10T16:29:59;31.80;72.70